sensor_id;sensor_type;location;lat;lon;timestamp;temperature;humidity
22379;DHT22;11357;49.990;7.370;2023-07-29T00:02:09;21.50;93.20
22379;DHT22;11357;49.990;7.370;2023-07-29T00:04:35;21.50;93.30
22379;DHT22;11357;49.990;7.370;2023-07-29T00:07:01;21.40;93.50
22379;DHT22;11357;49.990;7.370;2023-07-29T00:09:27;21.40;93.60
22379;DHT22;11357;49.990;7.370;2023-07-29T00:11:52;21.40;93.70
22379;DHT22;11357;49.990;7.370;2023-07-29T00:14:18;21.40;93.70
22379;DHT22;11357;49.990;7.370;2023-07-29T00:16:44;21.40;93.70
22379;DHT22;11357;49.990;7.370;2023-07-29T00:19:09;21.40;93.70
22379;DHT22;11357;49.990;7.370;2023-07-29T00:21:35;21.40;93.70
22379;DHT22;11357;49.990;7.370;2023-07-29T00:24:01;21.40;93.80
22379;DHT22;11357;49.990;7.370;2023-07-29T00:26:27;21.30;93.80
22379;DHT22;11357;49.990;7.370;2023-07-29T00:28:55;21.30;93.90
22379;DHT22;11357;49.990;7.370;2023-07-29T00:31:21;21.30;94.00
22379;DHT22;11357;49.990;7.370;2023-07-29T00:33:47;21.40;94.00
22379;DHT22;11357;49.990;7.370;2023-07-29T00:36:12;21.30;94.00
22379;DHT22;11357;49.990;7.370;2023-07-29T00:38:38;21.30;94.10
22379;DHT22;11357;49.990;7.370;2023-07-29T00:41:06;21.20;94.10
22379;DHT22;11357;49.990;7.370;2023-07-29T00:43:32;21.20;94.10
22379;DHT22;11357;49.990;7.370;2023-07-29T00:45:58;21.20;94.00
22379;DHT22;11357;49.990;7.370;2023-07-29T00:48:25;21.20;94.00
22379;DHT22;11357;49.990;7.370;2023-07-29T00:50:51;21.20;94.00
22379;DHT22;11357;49.990;7.370;2023-07-29T00:53:17;21.20;93.90
22379;DHT22;11357;49.990;7.370;2023-07-29T00:55:43;21.20;94.00
22379;DHT22;11357;49.990;7.370;2023-07-29T00:58:10;21.20;94.00
22379;DHT22;11357;49.990;7.370;2023-07-29T01:00:36;21.20;94.00
22379;DHT22;11357;49.990;7.370;2023-07-29T01:03:02;21.20;94.00
22379;DHT22;11357;49.990;7.370;2023-07-29T01:05:35;21.20;94.00
22379;DHT22;11357;49.990;7.370;2023-07-29T01:08:24;21.10;94.20
22379;DHT22;11357;49.990;7.370;2023-07-29T01:11:08;21.10;94.30
22379;DHT22;11357;49.990;7.370;2023-07-29T01:14:02;21.10;94.30
22379;DHT22;11357;49.990;7.370;2023-07-29T01:16:33;21.10;94.30
22379;DHT22;11357;49.990;7.370;2023-07-29T01:19:04;21.10;94.40
22379;DHT22;11357;49.990;7.370;2023-07-29T01:21:33;21.10;94.50
22379;DHT22;11357;49.990;7.370;2023-07-29T01:24:00;21.10;94.70
22379;DHT22;11357;49.990;7.370;2023-07-29T01:26:26;21.10;94.70
22379;DHT22;11357;49.990;7.370;2023-07-29T01:28:56;21.10;94.80
22379;DHT22;11357;49.990;7.370;2023-07-29T01:31:35;21.10;94.80
22379;DHT22;11357;49.990;7.370;2023-07-29T01:34:17;21.20;94.80
22379;DHT22;11357;49.990;7.370;2023-07-29T01:36:50;21.20;94.80
22379;DHT22;11357;49.990;7.370;2023-07-29T01:39:17;21.20;94.80
22379;DHT22;11357;49.990;7.370;2023-07-29T01:41:45;21.20;94.80
22379;DHT22;11357;49.990;7.370;2023-07-29T01:44:12;21.20;94.80
22379;DHT22;11357;49.990;7.370;2023-07-29T01:46:38;21.20;94.90
22379;DHT22;11357;49.990;7.370;2023-07-29T01:49:03;21.20;94.90
22379;DHT22;11357;49.990;7.370;2023-07-29T01:51:29;21.20;95.00
22379;DHT22;11357;49.990;7.370;2023-07-29T01:53:55;21.20;95.00
22379;DHT22;11357;49.990;7.370;2023-07-29T01:56:21;21.30;95.10
22379;DHT22;11357;49.990;7.370;2023-07-29T01:58:47;21.30;95.20
22379;DHT22;11357;49.990;7.370;2023-07-29T02:01:12;21.30;95.20
22379;DHT22;11357;49.990;7.370;2023-07-29T02:03:38;21.30;95.20
22379;DHT22;11357;49.990;7.370;2023-07-29T02:06:04;21.30;95.10
22379;DHT22;11357;49.990;7.370;2023-07-29T02:08:30;21.40;95.20
22379;DHT22;11357;49.990;7.370;2023-07-29T02:10:56;21.30;95.20
22379;DHT22;11357;49.990;7.370;2023-07-29T02:13:22;21.40;95.20
22379;DHT22;11357;49.990;7.370;2023-07-29T02:15:47;21.40;95.20
22379;DHT22;11357;49.990;7.370;2023-07-29T02:18:13;21.40;95.10
22379;DHT22;11357;49.990;7.370;2023-07-29T02:20:39;21.30;95.10
22379;DHT22;11357;49.990;7.370;2023-07-29T02:23:05;21.30;95.10
22379;DHT22;11357;49.990;7.370;2023-07-29T02:25:30;21.30;95.10
22379;DHT22;11357;49.990;7.370;2023-07-29T02:27:56;21.30;95.10
22379;DHT22;11357;49.990;7.370;2023-07-29T02:30:22;21.30;95.30
22379;DHT22;11357;49.990;7.370;2023-07-29T02:32:47;21.30;95.30
22379;DHT22;11357;49.990;7.370;2023-07-29T02:35:13;21.30;95.30
22379;DHT22;11357;49.990;7.370;2023-07-29T02:37:39;21.30;95.30
22379;DHT22;11357;49.990;7.370;2023-07-29T02:40:05;21.30;95.30
22379;DHT22;11357;49.990;7.370;2023-07-29T02:42:31;21.30;95.30
22379;DHT22;11357;49.990;7.370;2023-07-29T02:44:57;21.30;95.40
22379;DHT22;11357;49.990;7.370;2023-07-29T02:47:23;21.30;95.70
22379;DHT22;11357;49.990;7.370;2023-07-29T02:49:48;21.30;95.30
22379;DHT22;11357;49.990;7.370;2023-07-29T02:52:14;21.30;95.20
22379;DHT22;11357;49.990;7.370;2023-07-29T02:54:40;21.30;95.10
22379;DHT22;11357;49.990;7.370;2023-07-29T02:57:05;21.30;95.00
22379;DHT22;11357;49.990;7.370;2023-07-29T02:59:31;21.30;95.00
22379;DHT22;11357;49.990;7.370;2023-07-29T03:01:57;21.30;95.00
22379;DHT22;11357;49.990;7.370;2023-07-29T03:04:22;21.20;94.90
22379;DHT22;11357;49.990;7.370;2023-07-29T03:06:48;21.20;94.90
22379;DHT22;11357;49.990;7.370;2023-07-29T03:09:14;21.20;95.10
22379;DHT22;11357;49.990;7.370;2023-07-29T03:11:40;21.10;95.30
22379;DHT22;11357;49.990;7.370;2023-07-29T03:14:06;21.10;95.40
22379;DHT22;11357;49.990;7.370;2023-07-29T03:16:31;21.10;95.60
22379;DHT22;11357;49.990;7.370;2023-07-29T03:18:57;21.10;95.50
22379;DHT22;11357;49.990;7.370;2023-07-29T03:21:24;21.10;95.90
22379;DHT22;11357;49.990;7.370;2023-07-29T03:23:50;21.10;95.70
22379;DHT22;11357;49.990;7.370;2023-07-29T03:26:16;21.00;95.60
22379;DHT22;11357;49.990;7.370;2023-07-29T03:28:42;21.00;95.70
22379;DHT22;11357;49.990;7.370;2023-07-29T03:31:09;21.00;95.70
22379;DHT22;11357;49.990;7.370;2023-07-29T03:33:35;21.10;95.70
22379;DHT22;11357;49.990;7.370;2023-07-29T03:36:01;21.10;95.50
22379;DHT22;11357;49.990;7.370;2023-07-29T03:38:27;21.10;95.50
22379;DHT22;11357;49.990;7.370;2023-07-29T03:40:53;21.10;95.50
22379;DHT22;11357;49.990;7.370;2023-07-29T03:43:19;21.10;95.50
22379;DHT22;11357;49.990;7.370;2023-07-29T03:45:44;21.10;95.50
22379;DHT22;11357;49.990;7.370;2023-07-29T03:48:10;21.10;95.60
22379;DHT22;11357;49.990;7.370;2023-07-29T03:50:36;21.10;95.60
22379;DHT22;11357;49.990;7.370;2023-07-29T03:53:03;21.10;95.70
22379;DHT22;11357;49.990;7.370;2023-07-29T03:55:29;21.10;95.70
22379;DHT22;11357;49.990;7.370;2023-07-29T03:57:56;21.20;95.80
22379;DHT22;11357;49.990;7.370;2023-07-29T04:00:22;21.20;95.80
22379;DHT22;11357;49.990;7.370;2023-07-29T04:02:48;21.20;95.80
22379;DHT22;11357;49.990;7.370;2023-07-29T04:05:14;21.30;95.80
22379;DHT22;11357;49.990;7.370;2023-07-29T04:07:40;21.30;95.70
22379;DHT22;11357;49.990;7.370;2023-07-29T04:10:06;21.30;95.70
22379;DHT22;11357;49.990;7.370;2023-07-29T04:12:32;21.30;95.70
22379;DHT22;11357;49.990;7.370;2023-07-29T04:14:58;21.30;95.70
22379;DHT22;11357;49.990;7.370;2023-07-29T04:17:23;21.30;95.70
22379;DHT22;11357;49.990;7.370;2023-07-29T04:19:49;21.30;95.80
22379;DHT22;11357;49.990;7.370;2023-07-29T04:22:16;21.30;95.90
22379;DHT22;11357;49.990;7.370;2023-07-29T04:24:42;21.30;96.00
22379;DHT22;11357;49.990;7.370;2023-07-29T04:27:08;21.30;96.00
22379;DHT22;11357;49.990;7.370;2023-07-29T04:29:33;21.30;96.10
22379;DHT22;11357;49.990;7.370;2023-07-29T04:32:04;21.30;96.10
22379;DHT22;11357;49.990;7.370;2023-07-29T04:34:30;21.30;96.10
22379;DHT22;11357;49.990;7.370;2023-07-29T04:36:56;21.40;96.10
22379;DHT22;11357;49.990;7.370;2023-07-29T04:39:22;21.40;96.00
22379;DHT22;11357;49.990;7.370;2023-07-29T04:41:47;21.40;96.10
22379;DHT22;11357;49.990;7.370;2023-07-29T04:44:13;21.40;96.00
22379;DHT22;11357;49.990;7.370;2023-07-29T04:46:39;21.40;96.10
22379;DHT22;11357;49.990;7.370;2023-07-29T04:49:08;21.40;96.10
22379;DHT22;11357;49.990;7.370;2023-07-29T04:51:33;21.30;96.20
22379;DHT22;11357;49.990;7.370;2023-07-29T04:53:59;21.20;96.20
22379;DHT22;11357;49.990;7.370;2023-07-29T04:56:25;21.20;96.40
22379;DHT22;11357;49.990;7.370;2023-07-29T04:58:51;21.20;96.60
22379;DHT22;11357;49.990;7.370;2023-07-29T05:01:17;21.20;96.60
22379;DHT22;11357;49.990;7.370;2023-07-29T05:03:43;21.20;96.60
22379;DHT22;11357;49.990;7.370;2023-07-29T05:06:09;21.30;96.70
22379;DHT22;11357;49.990;7.370;2023-07-29T05:08:35;21.30;96.60
22379;DHT22;11357;49.990;7.370;2023-07-29T05:11:01;21.30;96.60
22379;DHT22;11357;49.990;7.370;2023-07-29T05:13:26;21.30;96.70
22379;DHT22;11357;49.990;7.370;2023-07-29T05:15:52;21.30;96.70
22379;DHT22;11357;49.990;7.370;2023-07-29T05:18:18;21.30;96.70
22379;DHT22;11357;49.990;7.370;2023-07-29T05:20:44;21.40;96.80
22379;DHT22;11357;49.990;7.370;2023-07-29T05:23:09;21.30;96.70
22379;DHT22;11357;49.990;7.370;2023-07-29T05:25:35;21.40;96.80
22379;DHT22;11357;49.990;7.370;2023-07-29T05:28:02;21.30;96.90
22379;DHT22;11357;49.990;7.370;2023-07-29T05:30:28;21.40;97.10
22379;DHT22;11357;49.990;7.370;2023-07-29T05:32:57;21.50;97.10
22379;DHT22;11357;49.990;7.370;2023-07-29T05:35:24;21.50;97.10
22379;DHT22;11357;49.990;7.370;2023-07-29T05:37:50;21.50;97.20
22379;DHT22;11357;49.990;7.370;2023-07-29T05:40:15;21.50;97.30
22379;DHT22;11357;49.990;7.370;2023-07-29T05:42:41;21.40;97.40
22379;DHT22;11357;49.990;7.370;2023-07-29T05:45:07;21.30;97.60
22379;DHT22;11357;49.990;7.370;2023-07-29T05:47:33;21.40;97.70
22379;DHT22;11357;49.990;7.370;2023-07-29T05:49:59;21.40;97.80
22379;DHT22;11357;49.990;7.370;2023-07-29T05:52:28;21.40;97.80
22379;DHT22;11357;49.990;7.370;2023-07-29T05:54:54;21.40;97.80
22379;DHT22;11357;49.990;7.370;2023-07-29T05:57:19;21.50;97.90
22379;DHT22;11357;49.990;7.370;2023-07-29T05:59:45;21.50;97.80
22379;DHT22;11357;49.990;7.370;2023-07-29T06:02:11;21.50;97.90
22379;DHT22;11357;49.990;7.370;2023-07-29T06:04:37;21.50;97.80
22379;DHT22;11357;49.990;7.370;2023-07-29T06:07:02;21.60;97.80
22379;DHT22;11357;49.990;7.370;2023-07-29T06:09:28;21.60;97.70
22379;DHT22;11357;49.990;7.370;2023-07-29T06:11:54;21.60;97.70
22379;DHT22;11357;49.990;7.370;2023-07-29T06:14:20;21.60;97.80
22379;DHT22;11357;49.990;7.370;2023-07-29T06:16:45;21.60;97.90
22379;DHT22;11357;49.990;7.370;2023-07-29T06:19:11;21.60;98.00
22379;DHT22;11357;49.990;7.370;2023-07-29T06:21:37;21.70;98.10
22379;DHT22;11357;49.990;7.370;2023-07-29T06:24:02;21.80;98.10
22379;DHT22;11357;49.990;7.370;2023-07-29T06:26:28;21.90;98.20
22379;DHT22;11357;49.990;7.370;2023-07-29T06:28:54;21.90;98.20
22379;DHT22;11357;49.990;7.370;2023-07-29T06:31:20;22.00;98.10
22379;DHT22;11357;49.990;7.370;2023-07-29T06:33:46;22.00;98.10
22379;DHT22;11357;49.990;7.370;2023-07-29T06:36:11;22.10;98.00
22379;DHT22;11357;49.990;7.370;2023-07-29T06:38:37;22.10;98.00
22379;DHT22;11357;49.990;7.370;2023-07-29T06:41:04;22.10;98.20
22379;DHT22;11357;49.990;7.370;2023-07-29T06:43:30;22.30;98.20
22379;DHT22;11357;49.990;7.370;2023-07-29T06:45:58;22.30;98.10
22379;DHT22;11357;49.990;7.370;2023-07-29T06:48:23;22.40;98.10
22379;DHT22;11357;49.990;7.370;2023-07-29T06:50:49;22.60;97.90
22379;DHT22;11357;49.990;7.370;2023-07-29T06:53:20;22.60;97.80
22379;DHT22;11357;49.990;7.370;2023-07-29T06:55:46;22.80;97.60
22379;DHT22;11357;49.990;7.370;2023-07-29T06:58:12;23.00;97.70
22379;DHT22;11357;49.990;7.370;2023-07-29T07:00:38;23.20;97.40
22379;DHT22;11357;49.990;7.370;2023-07-29T07:03:04;23.40;97.10
22379;DHT22;11357;49.990;7.370;2023-07-29T07:05:30;23.50;96.70
22379;DHT22;11357;49.990;7.370;2023-07-29T07:07:55;23.60;96.20
22379;DHT22;11357;49.990;7.370;2023-07-29T07:10:21;23.60;95.90
22379;DHT22;11357;49.990;7.370;2023-07-29T07:12:47;23.70;95.60
22379;DHT22;11357;49.990;7.370;2023-07-29T07:15:13;23.70;95.50
22379;DHT22;11357;49.990;7.370;2023-07-29T07:17:38;23.80;95.50
22379;DHT22;11357;49.990;7.370;2023-07-29T07:20:05;24.00;95.50
22379;DHT22;11357;49.990;7.370;2023-07-29T07:22:31;24.00;95.30
22379;DHT22;11357;49.990;7.370;2023-07-29T07:24:57;24.10;95.10
22379;DHT22;11357;49.990;7.370;2023-07-29T07:27:22;24.20;95.10
22379;DHT22;11357;49.990;7.370;2023-07-29T07:29:48;24.30;94.70
22379;DHT22;11357;49.990;7.370;2023-07-29T07:32:14;24.40;94.70
22379;DHT22;11357;49.990;7.370;2023-07-29T07:34:40;24.40;94.50
22379;DHT22;11357;49.990;7.370;2023-07-29T07:37:06;24.40;94.40
22379;DHT22;11357;49.990;7.370;2023-07-29T07:39:32;24.60;94.60
22379;DHT22;11357;49.990;7.370;2023-07-29T07:41:57;24.70;94.10
22379;DHT22;11357;49.990;7.370;2023-07-29T07:44:23;24.70;94.10
22379;DHT22;11357;49.990;7.370;2023-07-29T07:46:55;24.70;93.80
22379;DHT22;11357;49.990;7.370;2023-07-29T07:49:20;24.70;93.70
22379;DHT22;11357;49.990;7.370;2023-07-29T07:51:46;24.70;93.60
22379;DHT22;11357;49.990;7.370;2023-07-29T07:54:12;24.60;93.50
22379;DHT22;11357;49.990;7.370;2023-07-29T07:56:37;24.60;93.60
22379;DHT22;11357;49.990;7.370;2023-07-29T07:59:03;24.70;94.00
22379;DHT22;11357;49.990;7.370;2023-07-29T08:01:37;24.80;93.70
22379;DHT22;11357;49.990;7.370;2023-07-29T08:04:03;24.90;93.70
22379;DHT22;11357;49.990;7.370;2023-07-29T08:06:30;25.00;93.50
22379;DHT22;11357;49.990;7.370;2023-07-29T08:08:56;25.00;93.40
22379;DHT22;11357;49.990;7.370;2023-07-29T08:11:21;25.00;93.00
22379;DHT22;11357;49.990;7.370;2023-07-29T08:13:47;25.00;92.80
22379;DHT22;11357;49.990;7.370;2023-07-29T08:16:13;25.10;92.70
22379;DHT22;11357;49.990;7.370;2023-07-29T08:18:39;25.10;92.50
22379;DHT22;11357;49.990;7.370;2023-07-29T08:21:05;25.20;92.50
22379;DHT22;11357;49.990;7.370;2023-07-29T08:23:34;25.30;92.30
22379;DHT22;11357;49.990;7.370;2023-07-29T08:26:04;25.50;92.00
22379;DHT22;11357;49.990;7.370;2023-07-29T08:28:32;25.50;91.90
22379;DHT22;11357;49.990;7.370;2023-07-29T08:30:59;25.60;91.70
22379;DHT22;11357;49.990;7.370;2023-07-29T08:33:25;25.70;91.40
22379;DHT22;11357;49.990;7.370;2023-07-29T08:35:51;25.80;91.10
22379;DHT22;11357;49.990;7.370;2023-07-29T08:38:17;25.80;90.80
22379;DHT22;11357;49.990;7.370;2023-07-29T08:40:48;25.80;90.60
22379;DHT22;11357;49.990;7.370;2023-07-29T08:43:17;25.70;90.40
22379;DHT22;11357;49.990;7.370;2023-07-29T08:45:44;25.70;90.50
22379;DHT22;11357;49.990;7.370;2023-07-29T08:48:10;25.80;90.50
22379;DHT22;11357;49.990;7.370;2023-07-29T08:50:38;26.00;90.10
22379;DHT22;11357;49.990;7.370;2023-07-29T08:53:04;25.90;89.60
22379;DHT22;11357;49.990;7.370;2023-07-29T08:55:33;26.00;89.50
22379;DHT22;11357;49.990;7.370;2023-07-29T08:58:00;26.20;88.50
22379;DHT22;11357;49.990;7.370;2023-07-29T09:00:27;26.40;88.40
22379;DHT22;11357;49.990;7.370;2023-07-29T09:02:53;26.50;87.70
22379;DHT22;11357;49.990;7.370;2023-07-29T09:05:21;26.70;87.50
22379;DHT22;11357;49.990;7.370;2023-07-29T09:07:48;27.00;86.70
22379;DHT22;11357;49.990;7.370;2023-07-29T09:10:14;27.40;85.30
22379;DHT22;11357;49.990;7.370;2023-07-29T09:12:41;27.50;84.20
22379;DHT22;11357;49.990;7.370;2023-07-29T09:15:07;27.60;82.70
22379;DHT22;11357;49.990;7.370;2023-07-29T09:17:33;27.80;81.20
22379;DHT22;11357;49.990;7.370;2023-07-29T09:19:59;28.00;81.10
22379;DHT22;11357;49.990;7.370;2023-07-29T09:22:27;28.40;79.30
22379;DHT22;11357;49.990;7.370;2023-07-29T09:24:53;28.70;76.70
22379;DHT22;11357;49.990;7.370;2023-07-29T09:27:28;28.90;74.70
22379;DHT22;11357;49.990;7.370;2023-07-29T09:29:57;29.10;73.70
22379;DHT22;11357;49.990;7.370;2023-07-29T09:32:25;29.10;72.90
22379;DHT22;11357;49.990;7.370;2023-07-29T09:34:51;28.90;73.00
22379;DHT22;11357;49.990;7.370;2023-07-29T09:37:23;29.20;73.40
22379;DHT22;11357;49.990;7.370;2023-07-29T09:39:50;29.60;72.00
22379;DHT22;11357;49.990;7.370;2023-07-29T09:42:20;29.90;70.20
22379;DHT22;11357;49.990;7.370;2023-07-29T09:44:50;30.10;69.20
22379;DHT22;11357;49.990;7.370;2023-07-29T09:49:52;30.40;68.30
22379;DHT22;11357;49.990;7.370;2023-07-29T09:52:19;30.50;68.30
22379;DHT22;11357;49.990;7.370;2023-07-29T09:54:46;30.80;67.30
22379;DHT22;11357;49.990;7.370;2023-07-29T09:57:17;31.10;66.20
22379;DHT22;11357;49.990;7.370;2023-07-29T09:59:52;31.30;64.00
22379;DHT22;11357;49.990;7.370;2023-07-29T17:16:28;28.30;54.60
22379;DHT22;11357;49.990;7.370;2023-07-29T17:18:54;28.10;55.20
22379;DHT22;11357;49.990;7.370;2023-07-29T17:21:20;28.00;55.20
22379;DHT22;11357;49.990;7.370;2023-07-29T17:23:45;27.90;55.60
22379;DHT22;11357;49.990;7.370;2023-07-29T17:26:11;27.80;55.80
22379;DHT22;11357;49.990;7.370;2023-07-29T17:28:37;27.70;56.10
22379;DHT22;11357;49.990;7.370;2023-07-29T17:31:02;27.70;56.50
22379;DHT22;11357;49.990;7.370;2023-07-29T17:33:30;27.70;56.70
22379;DHT22;11357;49.990;7.370;2023-07-29T17:35:56;27.60;56.80
22379;DHT22;11357;49.990;7.370;2023-07-29T17:38:25;27.60;56.80
22379;DHT22;11357;49.990;7.370;2023-07-29T17:40:51;27.60;57.00
22379;DHT22;11357;49.990;7.370;2023-07-29T17:43:20;27.50;57.10
22379;DHT22;11357;49.990;7.370;2023-07-29T17:45:46;27.50;57.40
22379;DHT22;11357;49.990;7.370;2023-07-29T17:48:16;27.50;57.70
22379;DHT22;11357;49.990;7.370;2023-07-29T17:50:42;27.50;58.00
22379;DHT22;11357;49.990;7.370;2023-07-29T17:53:10;27.50;58.00
22379;DHT22;11357;49.990;7.370;2023-07-29T17:55:38;27.40;58.30
22379;DHT22;11357;49.990;7.370;2023-07-29T17:58:05;27.40;58.50
22379;DHT22;11357;49.990;7.370;2023-07-29T18:00:34;27.40;58.80
22379;DHT22;11357;49.990;7.370;2023-07-29T18:03:01;27.30;58.80
22379;DHT22;11357;49.990;7.370;2023-07-29T18:05:27;27.30;58.80
22379;DHT22;11357;49.990;7.370;2023-07-29T18:07:52;27.20;59.00
22379;DHT22;11357;49.990;7.370;2023-07-29T18:10:21;27.10;59.30
22379;DHT22;11357;49.990;7.370;2023-07-29T18:12:49;27.10;59.30
22379;DHT22;11357;49.990;7.370;2023-07-29T18:15:15;27.10;60.00
22379;DHT22;11357;49.990;7.370;2023-07-29T18:17:40;27.00;59.50
22379;DHT22;11357;49.990;7.370;2023-07-29T18:20:07;26.90;59.70
22379;DHT22;11357;49.990;7.370;2023-07-29T18:22:33;26.80;60.00
22379;DHT22;11357;49.990;7.370;2023-07-29T18:24:59;26.70;60.30
22379;DHT22;11357;49.990;7.370;2023-07-29T18:27:25;26.70;60.60
22379;DHT22;11357;49.990;7.370;2023-07-29T18:29:50;26.60;60.90
22379;DHT22;11357;49.990;7.370;2023-07-29T18:32:16;26.50;61.10
22379;DHT22;11357;49.990;7.370;2023-07-29T18:34:42;26.50;61.30
22379;DHT22;11357;49.990;7.370;2023-07-29T18:37:07;26.40;61.60
22379;DHT22;11357;49.990;7.370;2023-07-29T18:39:34;26.40;62.00
22379;DHT22;11357;49.990;7.370;2023-07-29T18:42:00;26.30;62.20
22379;DHT22;11357;49.990;7.370;2023-07-29T18:44:25;26.20;62.80
22379;DHT22;11357;49.990;7.370;2023-07-29T18:46:51;26.10;63.50
22379;DHT22;11357;49.990;7.370;2023-07-29T18:49:17;26.00;64.40
22379;DHT22;11357;49.990;7.370;2023-07-29T18:51:43;25.80;64.80
22379;DHT22;11357;49.990;7.370;2023-07-29T18:54:09;25.60;65.30
22379;DHT22;11357;49.990;7.370;2023-07-29T18:56:34;25.60;65.90
22379;DHT22;11357;49.990;7.370;2023-07-29T18:59:00;25.50;67.20
22379;DHT22;11357;49.990;7.370;2023-07-29T19:01:26;25.40;67.10
22379;DHT22;11357;49.990;7.370;2023-07-29T19:03:51;25.40;67.40
22379;DHT22;11357;49.990;7.370;2023-07-29T19:06:17;25.30;67.50
22379;DHT22;11357;49.990;7.370;2023-07-29T19:08:43;25.10;67.80
22379;DHT22;11357;49.990;7.370;2023-07-29T19:11:11;25.00;68.30
22379;DHT22;11357;49.990;7.370;2023-07-29T19:13:37;24.90;68.90
22379;DHT22;11357;49.990;7.370;2023-07-29T19:16:03;24.70;69.20
22379;DHT22;11357;49.990;7.370;2023-07-29T19:18:32;24.60;69.50
22379;DHT22;11357;49.990;7.370;2023-07-29T19:20:58;24.60;70.00
22379;DHT22;11357;49.990;7.370;2023-07-29T19:23:24;24.60;70.20
22379;DHT22;11357;49.990;7.370;2023-07-29T19:25:50;24.60;70.50
22379;DHT22;11357;49.990;7.370;2023-07-29T19:28:16;24.60;70.70
22379;DHT22;11357;49.990;7.370;2023-07-29T19:30:43;24.60;70.90
22379;DHT22;11357;49.990;7.370;2023-07-29T19:33:09;24.60;70.90
22379;DHT22;11357;49.990;7.370;2023-07-29T19:35:35;24.50;71.10
22379;DHT22;11357;49.990;7.370;2023-07-29T19:38:00;24.50;71.30
22379;DHT22;11357;49.990;7.370;2023-07-29T19:40:26;24.50;71.50
22379;DHT22;11357;49.990;7.370;2023-07-29T19:42:53;24.40;71.60
22379;DHT22;11357;49.990;7.370;2023-07-29T19:45:20;24.40;71.80
22379;DHT22;11357;49.990;7.370;2023-07-29T19:47:51;24.40;71.80
22379;DHT22;11357;49.990;7.370;2023-07-29T19:50:20;24.30;71.90
22379;DHT22;11357;49.990;7.370;2023-07-29T19:52:54;24.20;72.10
22379;DHT22;11357;49.990;7.370;2023-07-29T19:55:23;24.10;72.70
22379;DHT22;11357;49.990;7.370;2023-07-29T19:57:56;24.00;73.20
22379;DHT22;11357;49.990;7.370;2023-07-29T20:00:32;24.00;74.10
22379;DHT22;11357;49.990;7.370;2023-07-29T20:02:58;24.00;74.70
22379;DHT22;11357;49.990;7.370;2023-07-29T20:05:26;24.00;74.90
22379;DHT22;11357;49.990;7.370;2023-07-29T20:07:53;23.90;75.30
22379;DHT22;11357;49.990;7.370;2023-07-29T20:10:19;23.90;75.70
22379;DHT22;11357;49.990;7.370;2023-07-29T20:12:51;23.80;75.80
22379;DHT22;11357;49.990;7.370;2023-07-29T20:15:19;23.80;76.50
22379;DHT22;11357;49.990;7.370;2023-07-29T20:17:46;23.80;76.80
22379;DHT22;11357;49.990;7.370;2023-07-29T20:20:17;23.70;77.20
22379;DHT22;11357;49.990;7.370;2023-07-29T20:22:43;23.70;77.60
22379;DHT22;11357;49.990;7.370;2023-07-29T20:25:09;23.60;78.00
22379;DHT22;11357;49.990;7.370;2023-07-29T20:27:36;23.50;78.50
22379;DHT22;11357;49.990;7.370;2023-07-29T20:30:03;23.40;78.90
22379;DHT22;11357;49.990;7.370;2023-07-29T20:32:29;23.40;79.30
22379;DHT22;11357;49.990;7.370;2023-07-29T20:34:58;23.30;79.70
22379;DHT22;11357;49.990;7.370;2023-07-29T20:37:29;23.30;80.00
22379;DHT22;11357;49.990;7.370;2023-07-29T20:39:55;23.30;80.40
22379;DHT22;11357;49.990;7.370;2023-07-29T20:42:21;23.30;80.50
22379;DHT22;11357;49.990;7.370;2023-07-29T20:44:46;23.30;80.80
22379;DHT22;11357;49.990;7.370;2023-07-29T20:47:12;23.20;81.00
22379;DHT22;11357;49.990;7.370;2023-07-29T20:49:38;23.20;81.20
22379;DHT22;11357;49.990;7.370;2023-07-29T20:52:04;23.10;81.50
22379;DHT22;11357;49.990;7.370;2023-07-29T20:54:30;23.10;81.90
22379;DHT22;11357;49.990;7.370;2023-07-29T20:56:55;23.10;82.30
22379;DHT22;11357;49.990;7.370;2023-07-29T20:59:21;23.00;82.40
22379;DHT22;11357;49.990;7.370;2023-07-29T21:01:47;23.00;82.70
22379;DHT22;11357;49.990;7.370;2023-07-29T21:04:12;23.00;82.80
22379;DHT22;11357;49.990;7.370;2023-07-29T21:06:38;23.00;82.90
22379;DHT22;11357;49.990;7.370;2023-07-29T21:09:04;23.00;83.20
22379;DHT22;11357;49.990;7.370;2023-07-29T21:11:30;23.00;83.40
22379;DHT22;11357;49.990;7.370;2023-07-29T21:13:56;23.00;83.50
22379;DHT22;11357;49.990;7.370;2023-07-29T21:16:28;22.90;83.50
22379;DHT22;11357;49.990;7.370;2023-07-29T21:18:53;22.80;83.80
22379;DHT22;11357;49.990;7.370;2023-07-29T21:21:19;22.80;84.00
22379;DHT22;11357;49.990;7.370;2023-07-29T21:23:53;22.80;84.00
22379;DHT22;11357;49.990;7.370;2023-07-29T21:26:20;22.80;83.90
22379;DHT22;11357;49.990;7.370;2023-07-29T21:28:47;22.80;83.90
22379;DHT22;11357;49.990;7.370;2023-07-29T21:31:12;22.70;83.80
22379;DHT22;11357;49.990;7.370;2023-07-29T21:33:38;22.70;83.90
22379;DHT22;11357;49.990;7.370;2023-07-29T21:36:04;22.70;83.90
22379;DHT22;11357;49.990;7.370;2023-07-29T21:38:33;22.60;83.80
22379;DHT22;11357;49.990;7.370;2023-07-29T21:40:59;22.50;84.00
22379;DHT22;11357;49.990;7.370;2023-07-29T21:43:25;22.50;84.20
22379;DHT22;11357;49.990;7.370;2023-07-29T21:45:51;22.40;84.30
22379;DHT22;11357;49.990;7.370;2023-07-29T21:48:16;22.30;84.60
22379;DHT22;11357;49.990;7.370;2023-07-29T21:50:42;22.20;85.00
22379;DHT22;11357;49.990;7.370;2023-07-29T21:53:08;22.10;85.40
22379;DHT22;11357;49.990;7.370;2023-07-29T21:55:34;22.10;85.90
22379;DHT22;11357;49.990;7.370;2023-07-29T21:57:59;22.10;85.90
22379;DHT22;11357;49.990;7.370;2023-07-29T22:00:25;22.00;86.00
22379;DHT22;11357;49.990;7.370;2023-07-29T22:02:51;22.00;86.30
22379;DHT22;11357;49.990;7.370;2023-07-29T22:05:20;22.00;86.50
22379;DHT22;11357;49.990;7.370;2023-07-29T22:07:46;22.00;86.70
22379;DHT22;11357;49.990;7.370;2023-07-29T22:10:12;21.90;86.70
22379;DHT22;11357;49.990;7.370;2023-07-29T22:12:38;21.90;86.90
22379;DHT22;11357;49.990;7.370;2023-07-29T22:15:04;21.80;87.10
22379;DHT22;11357;49.990;7.370;2023-07-29T22:17:46;21.70;87.50
22379;DHT22;11357;49.990;7.370;2023-07-29T22:20:12;21.70;87.90
22379;DHT22;11357;49.990;7.370;2023-07-29T22:22:42;21.80;87.80
22379;DHT22;11357;49.990;7.370;2023-07-29T22:25:08;21.80;87.70
22379;DHT22;11357;49.990;7.370;2023-07-29T22:27:38;21.80;87.60
22379;DHT22;11357;49.990;7.370;2023-07-29T22:30:04;21.80;87.80
22379;DHT22;11357;49.990;7.370;2023-07-29T22:32:30;21.80;87.80
22379;DHT22;11357;49.990;7.370;2023-07-29T22:34:57;21.90;87.90
22379;DHT22;11357;49.990;7.370;2023-07-29T22:37:22;21.90;88.00
22379;DHT22;11357;49.990;7.370;2023-07-29T22:39:48;21.90;88.00
22379;DHT22;11357;49.990;7.370;2023-07-29T22:42:14;21.80;87.90
22379;DHT22;11357;49.990;7.370;2023-07-29T22:44:39;21.80;88.10